Time;durP1;ratioP1;P1;durP2;ratioP2;P2;SDS_P1;SDS_P2;PMS_P1;PMS_P2;Temp;Humidity;BMP_temperature;BMP_pressure;BME280_temperature;BME280_humidity;BME280_pressure;Samples;Min_cycle;Max_cycle;Signal;HPM_P1;HPM_P2
2023/07/16 00:00:36;;;;;;;8.05;5.37;;;;;;;25.91;53.20;99033.81;4389633;32;33471;-83
2023/07/16 00:03:04;;;;;;;7.25;5.43;;;;;;;25.83;53.48;99037.78;4389261;32;34697;-83
2023/07/16 00:05:31;;;;;;;9.40;4.85;;;;;;;25.81;53.48;99034.38;4389225;32;35076;-83
2023/07/16 00:07:59;;;;;;;8.85;4.95;;;;;;;25.81;53.41;99035.22;4389265;32;34106;-83
2023/07/16 00:10:26;;;;;;;7.82;5.12;;;;;;;25.71;53.32;99032.16;4388067;32;34086;-88
2023/07/16 00:12:54;;;;;;;10.80;4.93;;;;;;;25.71;53.28;99031.28;4363608;32;33378;-83
2023/07/16 00:15:21;;;;;;;7.95;5.53;;;;;;;25.84;52.88;99026.25;4377640;32;33313;-83
2023/07/16 00:17:49;;;;;;;7.50;5.00;;;;;;;25.64;53.50;99024.56;4377676;32;34168;-83
2023/07/16 00:20:17;;;;;;;7.62;5.05;;;;;;;25.66;53.49;99034.19;4391331;32;33735;-83
2023/07/16 00:22:44;;;;;;;7.35;5.18;;;;;;;25.65;53.56;99031.63;4391253;32;34321;-83
2023/07/16 00:25:12;;;;;;;7.90;4.90;;;;;;;25.55;53.76;99028.56;4391406;32;34218;-83
2023/07/16 00:27:39;;;;;;;8.60;4.82;;;;;;;25.58;53.67;99025.75;4390295;32;33823;-83
2023/07/16 00:30:08;;;;;;;8.50;5.32;;;;;;;25.42;54.13;99024.78;4391332;32;33650;-83
2023/07/16 00:32:36;;;;;;;8.00;5.43;;;;;;;25.52;53.77;99028.72;4391362;32;34000;-83
2023/07/16 00:35:05;;;;;;;9.75;5.60;;;;;;;25.40;54.04;99026.69;4391575;32;34714;-83
2023/07/16 00:37:34;;;;;;;7.85;5.10;;;;;;;25.40;54.11;99027.53;4377421;32;33735;-83
2023/07/16 00:40:02;;;;;;;7.87;5.30;;;;;;;25.41;54.21;99017.78;4391296;32;33434;-83
2023/07/16 00:42:29;;;;;;;7.35;5.53;;;;;;;25.29;54.74;99016.59;4390980;32;34883;-83
2023/07/16 00:44:57;;;;;;;8.45;5.50;;;;;;;25.38;54.44;99023.22;4377568;32;34144;-82
2023/07/16 00:47:25;;;;;;;8.40;5.32;;;;;;;25.17;55.21;99017.22;4391263;32;33793;-83
2023/07/16 00:49:53;;;;;;;8.57;5.22;;;;;;;25.20;55.17;99020.56;4377177;32;33625;-82
2023/07/16 00:52:20;;;;;;;11.48;5.40;;;;;;;25.22;54.84;99017.84;4391064;32;34883;-83
2023/07/16 00:54:49;;;;;;;10.20;5.53;;;;;;;25.01;55.46;99019.72;4365452;32;34721;-83
2023/07/16 00:57:17;;;;;;;9.93;5.60;;;;;;;25.19;54.73;99005.59;4377369;32;34057;-83
2023/07/16 00:59:44;;;;;;;9.60;5.28;;;;;;;25.11;55.05;99005.09;4377522;32;35277;-82
2023/07/16 01:02:12;;;;;;;7.05;5.43;;;;;;;25.04;55.34;99002.78;4390907;32;34048;-83
2023/07/16 01:04:40;;;;;;;9.75;5.60;;;;;;;25.17;54.93;98998.62;4377387;32;34764;-83
2023/07/16 01:07:11;;;;;;;10.15;5.97;;;;;;;25.18;54.78;99003.84;4390972;32;34178;-83
2023/07/16 01:09:41;;;;;;;12.02;6.55;;;;;;;25.19;54.83;99004.72;4377351;32;31909;-83
2023/07/16 01:12:09;;;;;;;12.77;7.00;;;;;;;24.95;55.65;99001.44;4377452;32;33941;-82
2023/07/16 01:14:37;;;;;;;10.73;7.65;;;;;;;24.90;55.97;99006.12;4391243;32;34666;-82
2023/07/16 01:17:06;;;;;;;11.80;8.00;;;;;;;24.89;56.32;98996.44;4389971;32;34180;-83
2023/07/16 01:19:34;;;;;;;13.27;9.63;;;;;;;25.00;56.12;99000.31;4391051;32;34134;-83
2023/07/16 01:22:29;;;;;;;12.70;8.32;;;;;;;24.94;56.68;99000.59;4390827;32;34013;-83
2023/07/16 01:25:24;;;;;;;10.68;9.32;;;;;;;25.03;56.42;98996.63;4389966;32;35104;-87
2023/07/16 01:28:15;;;;;;;11.00;8.90;;;;;;;24.88;57.50;99007.97;4390691;32;33406;-83
2023/07/16 01:30:44;;;;;;;14.02;8.63;;;;;;;24.85;57.32;99002.81;4383246;32;33970;-83
2023/07/16 01:33:13;;;;;;;12.52;10.00;;;;;;;24.80;57.66;99011.00;4390634;32;33552;-82
2023/07/16 01:35:42;;;;;;;11.35;9.07;;;;;;;25.00;56.87;99007.38;4377020;32;33356;-82
2023/07/16 01:38:11;;;;;;;13.62;10.15;;;;;;;24.88;57.15;98997.38;4390742;32;34921;-82
2023/07/16 01:40:41;;;;;;;12.37;10.07;;;;;;;24.75;57.83;99000.63;4377412;32;33673;-82
2023/07/16 01:43:08;;;;;;;11.75;9.70;;;;;;;24.88;57.30;99000.03;4376796;32;33301;-83
2023/07/16 01:45:36;;;;;;;13.05;9.77;;;;;;;24.66;58.06;99005.50;4376894;32;33776;-83
2023/07/16 01:48:24;;;;;;;13.68;9.70;;;;;;;24.82;57.67;99008.28;4390803;32;34337;-83
2023/07/16 01:50:52;;;;;;;11.50;10.30;;;;;;;24.78;57.64;98994.31;4389238;32;33484;-82
2023/07/16 01:53:20;;;;;;;12.07;10.73;;;;;;;24.71;57.73;99000.84;4389478;32;33780;-82
2023/07/16 01:55:47;;;;;;;12.55;9.95;;;;;;;24.52;58.48;98999.06;4376967;32;34316;-82
2023/07/16 01:58:15;;;;;;;12.32;10.30;;;;;;;24.66;57.99;98998.41;4364423;32;34980;-82
2023/07/16 02:00:43;;;;;;;14.93;10.80;;;;;;;24.70;57.85;99002.66;4390711;32;33050;-82
2023/07/16 02:03:11;;;;;;;12.13;9.43;;;;;;;24.69;57.81;98997.41;4390590;32;33991;-82
2023/07/16 02:05:38;;;;;;;12.25;10.15;;;;;;;24.72;57.55;98994.59;4390421;32;34593;-83
2023/07/16 02:08:06;;;;;;;11.85;9.90;;;;;;;24.54;58.22;98993.69;4389625;32;34149;-83
2023/07/16 02:10:33;;;;;;;11.95;10.75;;;;;;;24.53;58.19;98994.63;4389415;32;33588;-82
2023/07/16 02:13:01;;;;;;;13.60;10.32;;;;;;;24.36;58.90;98989.19;4390384;32;33707;-82
2023/07/16 02:15:28;;;;;;;13.25;10.52;;;;;;;24.47;58.39;98987.81;4389309;32;33385;-83
2023/07/16 02:17:56;;;;;;;12.70;9.82;;;;;;;24.38;58.52;98990.00;4389189;32;34517;-83
2023/07/16 02:20:24;;;;;;;14.57;10.35;;;;;;;24.31;58.81;98985.91;4390363;32;34257;-82
2023/07/16 02:22:51;;;;;;;13.07;10.38;;;;;;;24.36;58.81;98979.47;4390675;32;33204;-83
2023/07/16 02:25:21;;;;;;;11.65;10.10;;;;;;;24.44;58.59;98976.50;4390449;32;33700;-82
2023/07/16 02:27:49;;;;;;;13.52;10.35;;;;;;;24.40;58.77;98981.09;4390293;32;34859;-82
2023/07/16 02:30:17;;;;;;;11.85;10.63;;;;;;;24.47;58.54;98977.22;4390609;32;33858;-83
2023/07/16 02:32:44;;;;;;;13.07;11.23;;;;;;;24.10;59.80;98978.03;4390450;32;33629;-83
2023/07/16 02:35:13;;;;;;;14.27;10.80;;;;;;;24.17;59.92;98989.19;4376084;32;33855;-82
2023/07/16 02:37:40;;;;;;;12.98;11.27;;;;;;;24.12;60.25;98986.75;4389071;32;34028;-82
2023/07/16 02:40:08;;;;;;;13.18;10.40;;;;;;;24.21;59.66;98986.34;4390481;32;34320;-82
2023/07/16 02:42:35;;;;;;;11.88;10.52;;;;;;;24.40;59.03;98980.25;4388969;32;33749;-82
2023/07/16 02:45:03;;;;;;;13.68;9.90;;;;;;;24.40;59.02;98981.09;4390390;32;34061;-83
2023/07/16 02:47:31;;;;;;;13.85;10.20;;;;;;;24.40;58.87;98985.53;4390271;32;34473;-82
2023/07/16 02:49:59;;;;;;;11.80;10.13;;;;;;;24.38;59.00;98990.84;4364054;32;33251;-82
2023/07/16 02:52:26;;;;;;;14.27;10.50;;;;;;;24.27;59.19;98987.84;4376727;32;34411;-82
2023/07/16 02:54:54;;;;;;;11.38;10.27;;;;;;;24.10;59.81;98993.91;4376855;32;34043;-82
2023/07/16 02:57:22;;;;;;;12.75;9.98;;;;;;;24.36;58.90;98984.78;4376270;32;32671;-82
2023/07/16 02:59:50;;;;;;;12.75;10.35;;;;;;;24.23;59.21;98991.56;4376708;32;33457;-83
2023/07/16 03:02:17;;;;;;;13.65;10.07;;;;;;;24.21;59.13;98991.66;4389821;32;33754;-82
2023/07/16 03:04:45;;;;;;;15.23;10.13;;;;;;;24.28;59.16;98993.09;4389917;32;34858;-82
2023/07/16 03:07:12;;;;;;;12.68;10.18;;;;;;;24.42;58.49;98986.31;4390392;32;34632;-82
2023/07/16 03:09:40;;;;;;;10.90;9.80;;;;;;;24.31;58.95;99000.00;4390087;32;34208;-82
2023/07/16 03:12:08;;;;;;;13.43;9.85;;;;;;;24.36;58.86;99002.44;4389917;32;33821;-82
2023/07/16 03:14:36;;;;;;;13.15;9.15;;;;;;;24.47;58.08;98989.59;4376258;32;33198;-82
2023/07/16 03:17:06;;;;;;;11.10;9.65;;;;;;;24.54;58.18;98998.97;4389820;32;34969;-82
2023/07/16 03:19:34;;;;;;;11.45;9.60;;;;;;;24.45;58.39;99010.03;4390272;32;34700;-82
2023/07/16 03:22:02;;;;;;;12.30;9.40;;;;;;;24.39;58.62;99005.00;4390342;32;33969;-82
2023/07/16 03:24:31;;;;;;;14.18;10.13;;;;;;;24.35;59.15;99009.53;4389933;32;34228;-82
2023/07/16 03:27:00;;;;;;;16.10;9.63;;;;;;;24.44;58.57;99008.31;4390016;32;34239;-83
2023/07/16 03:29:44;;;;;;;11.43;9.10;;;;;;;24.52;58.63;99001.72;4390280;32;34416;-82
2023/07/16 03:32:12;;;;;;;11.20;8.40;;;;;;;24.49;58.81;99006.28;4390025;32;33779;-82
2023/07/16 03:34:40;;;;;;;11.73;9.27;;;;;;;24.67;58.14;99005.44;4389975;32;33638;-82
2023/07/16 03:37:07;;;;;;;9.93;8.90;;;;;;;24.71;58.02;98998.19;4376164;32;33954;-82
2023/07/16 03:39:35;;;;;;;9.95;8.60;;;;;;;24.73;57.89;99002.47;4390111;32;33908;-82
2023/07/16 03:42:03;;;;;;;11.23;9.18;;;;;;;24.72;57.89;99000.75;4389870;32;33925;-82
2023/07/16 03:44:30;;;;;;;10.45;9.13;;;;;;;24.79;57.81;99000.47;4389374;32;34214;-81
2023/07/16 03:46:58;;;;;;;10.63;9.20;;;;;;;24.78;57.78;99004.06;4388485;32;33762;-82
2023/07/16 03:49:26;;;;;;;12.70;8.80;;;;;;;24.71;58.03;99012.31;4377752;32;33470;-89
2023/07/16 03:51:54;;;;;;;10.52;8.80;;;;;;;24.88;57.57;99013.28;4377996;32;34610;-82
2023/07/16 03:54:21;;;;;;;13.13;8.43;;;;;;;24.87;57.74;99011.56;4391722;32;35110;-81
2023/07/16 03:56:49;;;;;;;10.95;8.75;;;;;;;25.03;56.93;99015.19;4391407;32;34059;-82
2023/07/16 03:59:17;;;;;;;12.65;8.50;;;;;;;25.17;56.57;99014.56;4391337;32;33606;-81
2023/07/16 04:01:45;;;;;;;11.40;8.15;;;;;;;24.73;57.78;99013.06;4391504;32;33661;-82
2023/07/16 04:04:12;;;;;;;11.75;8.05;;;;;;;25.11;56.91;99023.66;4377945;32;35307;-81
2023/07/16 04:06:40;;;;;;;11.80;7.93;;;;;;;24.85;57.53;99022.25;4391540;32;33294;-82
2023/07/16 04:09:07;;;;;;;12.50;8.52;;;;;;;25.12;56.94;99028.06;4391438;32;33347;-82
2023/07/16 04:11:35;;;;;;;11.48;8.38;;;;;;;25.26;56.54;99026.50;4391356;32;33862;-82
2023/07/16 04:14:02;;;;;;;12.70;8.90;;;;;;;25.53;55.46;99027.75;4377389;32;34352;-82
2023/07/16 04:16:30;;;;;;;12.68;8.23;;;;;;;25.52;55.65;99031.38;4364989;32;33459;-81
2023/07/16 04:18:58;;;;;;;9.60;7.35;;;;;;;25.73;55.23;99035.59;4391449;32;34495;-81
2023/07/16 04:21:25;;;;;;;10.07;7.57;;;;;;;26.01;54.43;99031.53;4391250;32;33996;-86
2023/07/16 04:23:52;;;;;;;11.43;7.97;;;;;;;25.72;54.67;99025.91;4391320;32;34545;-81
2023/07/16 04:26:20;;;;;;;9.68;7.15;;;;;;;25.86;54.21;99029.66;4391392;32;33849;-81
2023/07/16 04:28:48;;;;;;;10.20;6.87;;;;;;;25.76;54.63;99031.03;4365097;32;33010;-81
2023/07/16 04:31:17;;;;;;;9.88;7.15;;;;;;;26.19;53.80;99038.53;4390233;32;33382;-82
2023/07/16 04:33:45;;;;;;;14.18;7.12;;;;;;;26.46;52.59;99040.69;4390367;32;33341;-81
2023/07/16 04:36:12;;;;;;;10.27;6.75;;;;;;;26.88;52.27;99037.44;4391128;32;33940;-82
2023/07/16 04:38:40;;;;;;;8.68;6.62;;;;;;;27.20;50.06;99039.25;4377575;32;32358;-81
2023/07/16 04:41:08;;;;;;;11.27;6.47;;;;;;;27.45;49.46;99030.72;4391420;32;33447;-81
2023/07/16 04:43:35;;;;;;;9.55;6.37;;;;;;;27.57;49.79;99030.84;4390998;32;34872;-81
2023/07/16 04:46:03;;;;;;;11.75;7.35;;;;;;;27.75;48.95;99038.72;4391221;32;34215;-82
2023/07/16 04:48:31;;;;;;;10.25;6.68;;;;;;;28.17;48.54;99045.06;4391238;32;33433;-82
2023/07/16 04:50:59;;;;;;;9.40;6.80;;;;;;;28.42;48.14;99045.31;4390906;32;34002;-79
2023/07/16 04:53:26;;;;;;;9.63;7.00;;;;;;;28.28;48.14;99040.78;4389897;32;34755;-80
2023/07/16 04:55:54;;;;;;;9.82;6.90;;;;;;;28.56;47.31;99042.63;4391176;32;34267;-79
2023/07/16 04:58:21;;;;;;;11.30;7.37;;;;;;;28.44;47.87;99038.03;4377129;32;32125;-79
2023/07/16 05:00:49;;;;;;;9.32;6.95;;;;;;;28.42;48.50;99045.31;4391118;32;34731;-80
2023/07/16 05:03:17;;;;;;;9.52;6.80;;;;;;;28.77;47.89;99040.41;4390882;32;35880;-80
2023/07/16 05:05:44;;;;;;;9.35;7.22;;;;;;;28.62;47.77;99047.56;4390929;32;34986;-80
2023/07/16 05:08:12;;;;;;;9.85;6.43;;;;;;;28.55;47.78;99043.56;4391072;32;34313;-80
2023/07/16 05:10:39;;;;;;;13.13;6.87;;;;;;;28.67;47.59;99043.75;4391011;32;34038;-80
2023/07/16 05:13:07;;;;;;;10.43;7.18;;;;;;;29.07;47.38;99042.94;4376923;32;32743;-80
2023/07/16 05:15:34;;;;;;;9.60;7.15;;;;;;;29.21;46.71;99052.72;4391322;32;34731;-87
2023/07/16 05:18:02;;;;;;;8.60;5.78;;;;;;;29.19;46.42;99041.25;4390893;32;33583;-80
2023/07/16 05:20:30;;;;;;;10.43;6.68;;;;;;;29.12;46.46;99050.63;4390805;32;33753;-80
2023/07/16 05:22:57;;;;;;;7.85;5.90;;;;;;;29.08;46.37;99043.78;4390866;32;34135;-84
2023/07/16 05:25:25;;;;;;;9.30;6.70;;;;;;;28.92;46.36;99043.91;4390763;32;34838;-84
2023/07/16 05:27:53;;;;;;;9.02;6.30;;;;;;;28.86;47.20;99036.28;4390701;32;33210;-79
2023/07/16 05:30:21;;;;;;;9.50;6.22;;;;;;;28.69;47.76;99040.03;4377152;32;33677;-80
2023/07/16 05:32:48;;;;;;;8.35;6.25;;;;;;;29.08;47.12;99033.09;4390837;32;34284;-79
2023/07/16 05:35:16;;;;;;;11.73;6.62;;;;;;;28.81;47.41;99039.25;4390721;32;34047;-80
2023/07/16 05:37:43;;;;;;;9.93;6.53;;;;;;;29.05;47.08;99034.16;4390963;32;33501;-79
2023/07/16 05:40:11;;;;;;;9.55;7.15;;;;;;;28.90;47.26;99035.13;4390894;32;34166;-79
2023/07/16 05:42:39;;;;;;;8.98;6.05;;;;;;;28.98;46.73;99046.22;4376938;32;33854;-80
2023/07/16 05:45:06;;;;;;;8.73;6.05;;;;;;;28.95;47.21;99043.69;4390832;32;33972;-79
2023/07/16 05:47:35;;;;;;;8.85;5.30;;;;;;;29.39;46.63;99045.28;4390820;32;34548;-79
2023/07/16 05:50:03;;;;;;;10.00;5.57;;;;;;;29.30;45.57;99054.75;4390865;32;33643;-79
2023/07/16 05:52:31;;;;;;;10.55;6.43;;;;;;;29.66;45.12;99055.09;4390994;32;34532;-79
2023/07/16 05:54:59;;;;;;;10.35;6.20;;;;;;;29.57;44.72;99049.44;4391181;32;33941;-80
2023/07/16 05:57:27;;;;;;;9.05;6.07;;;;;;;29.91;45.07;99052.47;4364702;32;32824;-80
2023/07/16 05:59:54;;;;;;;7.85;5.78;;;;;;;30.12;44.78;99047.47;4390627;32;33351;-79
2023/07/16 06:02:23;;;;;;;8.57;5.82;;;;;;;30.03;44.65;99059.66;4390607;32;33836;-79
2023/07/16 06:04:51;;;;;;;10.98;5.47;;;;;;;30.03;44.13;99048.97;4390584;32;35013;-80
2023/07/16 06:07:18;;;;;;;10.23;4.87;;;;;;;30.43;44.59;99064.94;4390837;32;33585;-79
2023/07/16 06:09:46;;;;;;;6.95;5.60;;;;;;;30.13;42.76;99059.88;4390398;32;35018;-80
2023/07/16 06:12:14;;;;;;;8.43;5.03;;;;;;;29.97;43.60;99056.56;4389868;32;34077;-80
2023/07/16 06:14:41;;;;;;;8.95;4.95;;;;;;;29.57;42.32;99048.53;4390550;32;34433;-84
2023/07/16 06:17:09;;;;;;;10.18;4.65;;;;;;;29.53;42.19;99041.69;4389085;32;33187;-79
2023/07/16 06:19:37;;;;;;;8.93;5.03;;;;;;;29.61;41.70;99057.25;4376675;32;33744;-79
2023/07/16 06:22:04;;;;;;;12.50;4.78;;;;;;;29.71;42.73;99059.19;4390603;32;34669;-84
2023/07/16 06:24:32;;;;;;;8.80;4.85;;;;;;;29.92;42.70;99054.19;4390200;32;33925;-82
2023/07/16 06:26:59;;;;;;;10.40;4.32;;;;;;;30.03;42.28;99054.31;4390316;32;34108;-79
2023/07/16 06:29:27;;;;;;;7.00;4.45;;;;;;;30.34;42.32;99056.69;4376853;32;33988;-82
2023/07/16 06:31:58;;;;;;;8.50;5.05;;;;;;;30.77;41.31;99065.25;4364201;32;33427;-80
2023/07/16 06:34:26;;;;;;;7.00;4.80;;;;;;;30.82;40.81;99047.00;4389305;32;33971;-80
2023/07/16 06:36:54;;;;;;;6.70;3.92;;;;;;;30.53;39.35;99057.09;4390457;32;34890;-80
2023/07/16 06:39:21;;;;;;;9.57;5.03;;;;;;;30.39;40.03;99058.09;4363968;32;32665;-80
2023/07/16 06:41:49;;;;;;;8.63;4.87;;;;;;;30.21;39.05;99051.34;4390526;32;34563;-79
2023/07/16 06:44:16;;;;;;;8.82;4.60;;;;;;;29.78;41.24;99054.28;4390365;32;34606;-80
2023/07/16 06:46:44;;;;;;;9.57;4.62;;;;;;;30.39;40.90;99050.06;4389026;32;33258;-83
2023/07/16 06:49:11;;;;;;;7.93;4.12;;;;;;;30.09;40.10;99052.19;4390229;32;34052;-82
2023/07/16 06:51:39;;;;;;;11.63;4.43;;;;;;;30.31;40.66;99057.78;4390364;32;34577;-80
2023/07/16 06:54:07;;;;;;;7.18;4.80;;;;;;;30.76;39.99;99052.78;4376322;32;33652;-80
2023/07/16 06:56:35;;;;;;;9.10;4.80;;;;;;;30.87;39.96;99050.19;4389235;32;33733;-80
2023/07/16 06:59:02;;;;;;;8.35;5.32;;;;;;;31.02;37.79;99054.44;4364059;32;32395;-80
2023/07/16 07:01:30;;;;;;;9.20;4.10;;;;;;;31.16;39.04;99055.25;4389927;32;35027;-80
2023/07/16 07:03:58;;;;;;;6.78;4.65;;;;;;;31.39;38.61;99062.47;4390234;32;34093;-83
2023/07/16 07:06:25;;;;;;;11.07;4.82;;;;;;;31.08;39.06;99052.28;4390024;32;34357;-80
2023/07/16 07:08:53;;;;;;;8.45;4.60;;;;;;;31.30;39.21;99052.44;4376148;32;33597;-85
2023/07/16 07:11:20;;;;;;;8.02;4.43;;;;;;;31.41;37.25;99044.47;4390155;32;33971;-80
2023/07/16 07:13:50;;;;;;;6.50;3.87;;;;;;;31.59;39.22;99044.03;4390051;32;35039;-85
2023/07/16 07:16:18;;;;;;;10.50;4.57;;;;;;;30.97;37.91;99045.91;4376271;32;34387;-84
2023/07/16 07:18:46;;;;;;;7.40;4.50;;;;;;;31.15;38.55;99053.56;4389998;32;34816;-84
2023/07/16 07:21:13;;;;;;;9.80;4.55;;;;;;;30.91;38.65;99059.75;4376417;32;34619;-80
2023/07/16 07:23:42;;;;;;;10.13;4.22;;;;;;;31.05;39.29;99053.38;4374798;32;32840;-80
2023/07/16 07:26:09;;;;;;;9.95;4.25;;;;;;;31.22;39.13;99057.50;4389966;32;33484;-80
2023/07/16 07:28:37;;;;;;;8.27;3.90;;;;;;;30.98;38.79;99049.44;4389987;32;33742;-80
2023/07/16 07:31:04;;;;;;;9.55;4.43;;;;;;;31.65;38.34;99046.25;4389805;32;35200;-85
2023/07/16 07:33:32;;;;;;;8.07;4.03;;;;;;;31.80;37.38;99055.81;4388789;32;34833;-80
2023/07/16 07:35:59;;;;;;;7.45;3.97;;;;;;;30.98;38.90;99060.97;4389861;32;34109;-84
2023/07/16 07:38:28;;;;;;;9.00;4.18;;;;;;;31.17;38.64;99062.31;4375614;32;33150;-80
2023/07/16 07:40:56;;;;;;;6.47;3.95;;;;;;;31.11;39.05;99052.06;4389819;32;34060;-80
2023/07/16 07:43:23;;;;;;;7.80;4.00;;;;;;;31.41;38.80;99048.97;4389624;32;33788;-80
2023/07/16 07:45:51;;;;;;;10.27;3.95;;;;;;;31.78;38.15;99047.00;4389516;32;34392;-80
2023/07/16 07:48:18;;;;;;;11.32;4.07;;;;;;;32.06;37.16;99040.41;4389707;32;34059;-82
2023/07/16 07:50:46;;;;;;;7.90;3.83;;;;;;;32.03;37.52;99039.81;4389836;32;33903;-85
2023/07/16 07:53:18;;;;;;;8.10;4.05;;;;;;;31.44;38.11;99041.56;4389634;32;34120;-80
2023/07/16 07:55:46;;;;;;;9.95;4.45;;;;;;;31.41;39.17;99043.63;4389494;32;34358;-81
2023/07/16 07:58:13;;;;;;;6.10;3.30;;;;;;;31.40;38.52;99050.78;4389304;32;34975;-82
2023/07/16 08:00:41;;;;;;;9.20;4.20;;;;;;;31.13;38.78;99050.97;4389482;32;34177;-80
2023/07/16 08:03:08;;;;;;;7.15;3.53;;;;;;;31.74;38.12;99050.91;4389336;32;33821;-80
2023/07/16 08:05:36;;;;;;;9.07;3.83;;;;;;;32.03;38.88;99055.87;4376019;32;33832;-80
2023/07/16 08:08:22;;;;;;;8.82;4.57;;;;;;;32.43;37.72;99050.97;4389301;32;34697;-81
2023/07/16 08:10:50;;;;;;;7.32;4.28;;;;;;;32.80;36.68;99050.69;4375787;32;34941;-81
2023/07/16 08:13:17;;;;;;;9.45;4.32;;;;;;;32.05;38.11;99060.16;4389634;32;34350;-80
2023/07/16 08:15:45;;;;;;;7.82;3.90;;;;;;;31.96;37.69;99048.31;4389640;32;33594;-81
2023/07/16 08:18:12;;;;;;;12.18;3.78;;;;;;;32.00;38.61;99050.75;4389169;32;33575;-83
2023/07/16 08:20:43;;;;;;;8.70;4.65;;;;;;;31.96;38.70;99045.63;4389307;32;33716;-84
2023/07/16 08:23:12;;;;;;;7.87;4.55;;;;;;;32.09;38.43;99055.44;4389160;32;34145;-80
2023/07/16 08:25:40;;;;;;;7.55;4.12;;;;;;;32.60;38.64;99053.16;4375424;32;33323;-81
2023/07/16 08:28:07;;;;;;;6.43;4.00;;;;;;;32.37;38.68;99046.06;4389207;32;33515;-85
2023/07/16 08:30:35;;;;;;;11.40;4.55;;;;;;;32.08;38.07;99048.34;4389064;32;34191;-80
2023/07/16 08:33:03;;;;;;;7.03;4.30;;;;;;;32.34;38.67;99039.09;4389027;32;34190;-80
2023/07/16 08:35:30;;;;;;;7.10;4.22;;;;;;;33.02;37.36;99041.78;4391123;32;33622;-82
2023/07/16 08:37:58;;;;;;;9.57;4.60;;;;;;;32.85;37.32;99041.31;4391205;32;33127;-84
2023/07/16 08:40:27;;;;;;;7.95;4.20;;;;;;;33.08;37.38;99036.75;4377521;32;35082;-81
2023/07/16 08:42:56;;;;;;;9.80;5.00;;;;;;;32.55;37.69;99041.09;4391401;32;33822;-81
2023/07/16 08:45:25;;;;;;;10.75;4.70;;;;;;;32.27;38.82;99050.44;4389871;32;33941;-81
2023/07/16 08:47:53;;;;;;;6.53;4.50;;;;;;;32.59;37.85;99043.41;4389996;32;33998;-81
2023/07/16 08:50:21;;;;;;;6.20;4.55;;;;;;;33.05;38.31;99041.53;4390974;32;34844;-81
2023/07/16 08:52:49;;;;;;;8.38;4.55;;;;;;;33.53;36.51;99033.09;4391178;32;34088;-81
2023/07/16 08:55:17;;;;;;;7.20;4.97;;;;;;;33.83;36.43;99043.94;4389752;32;33303;-81
2023/07/16 08:57:45;;;;;;;8.88;4.85;;;;;;;33.56;36.74;99054.31;4391104;32;34080;-82
2023/07/16 09:00:13;;;;;;;8.27;4.97;;;;;;;33.59;37.28;99046.84;4391106;32;34752;-82
2023/07/16 09:02:41;;;;;;;9.18;5.37;;;;;;;33.69;35.71;99049.63;4377408;32;34755;-83
2023/07/16 09:05:09;;;;;;;10.65;4.28;;;;;;;33.64;37.77;99052.72;4377221;32;33245;-81
2023/07/16 09:07:47;;;;;;;11.70;5.47;;;;;;;33.90;35.69;99050.47;4390904;32;34627;-82
2023/07/16 09:10:15;;;;;;;7.97;4.85;;;;;;;33.40;36.00;99052.88;4389873;32;34954;-81
2023/07/16 09:12:43;;;;;;;9.18;5.03;;;;;;;33.67;36.67;99057.81;4377653;32;34413;-82
2023/07/16 09:15:13;;;;;;;7.70;5.37;;;;;;;33.68;36.85;99050.63;4391048;32;33427;-83
2023/07/16 09:17:41;;;;;;;13.07;5.40;;;;;;;33.86;35.45;99046.34;4390781;32;33830;-87
2023/07/16 09:20:09;;;;;;;8.90;4.87;;;;;;;33.62;36.00;99040.37;4390818;32;33685;-82
2023/07/16 09:22:37;;;;;;;8.25;5.55;;;;;;;33.31;37.35;99050.97;4390800;32;34208;-81
2023/07/16 09:25:05;;;;;;;11.43;6.00;;;;;;;33.68;36.44;99047.94;4390949;32;34091;-81
2023/07/16 09:27:33;;;;;;;10.25;5.50;;;;;;;33.88;36.18;99044.38;4390765;32;34633;-81
2023/07/16 09:30:05;;;;;;;10.10;5.55;;;;;;;33.85;34.70;99050.00;4377068;32;33802;-82
2023/07/16 09:32:36;;;;;;;9.23;5.30;;;;;;;33.95;35.21;99043.88;4377614;32;33603;-82
2023/07/16 09:35:22;;;;;;;11.43;6.10;;;;;;;33.80;35.22;99038.81;4389291;32;34505;-85
2023/07/16 09:37:51;;;;;;;8.52;5.20;;;;;;;33.86;35.95;99042.78;4390894;32;34584;-82
2023/07/16 09:40:18;;;;;;;11.43;5.82;;;;;;;33.62;35.63;99043.06;4389465;32;34244;-82
2023/07/16 09:42:46;;;;;;;9.82;5.90;;;;;;;33.51;36.34;99035.91;4390778;32;33971;-82
2023/07/16 09:45:18;;;;;;;9.30;5.68;;;;;;;33.65;35.63;99042.81;4376402;32;33591;-82
2023/07/16 09:47:46;;;;;;;9.75;6.00;;;;;;;33.97;34.30;99044.56;4390592;32;33822;-81
2023/07/16 09:50:14;;;;;;;10.27;5.65;;;;;;;34.11;34.55;99047.81;4390724;32;34194;-81
2023/07/16 09:52:42;;;;;;;9.93;5.40;;;;;;;34.03;36.36;99052.16;4377324;32;34160;-81
2023/07/16 09:55:10;;;;;;;10.18;5.87;;;;;;;34.13;35.72;99043.16;4377036;32;34252;-81
2023/07/16 09:57:40;;;;;;;13.00;5.62;;;;;;;34.25;35.15;99043.09;4377122;32;34751;-82
2023/07/16 10:00:12;;;;;;;8.77;5.25;;;;;;;34.36;35.43;99046.53;4377060;32;33909;-82
2023/07/16 10:02:41;;;;;;;8.80;5.65;;;;;;;34.52;34.50;99042.53;4376817;32;33851;-82
2023/07/16 10:05:16;;;;;;;9.70;5.43;;;;;;;34.67;34.68;99030.38;4390681;32;33694;-85
2023/07/16 10:07:51;;;;;;;10.88;5.28;;;;;;;34.61;34.01;99036.31;4390431;32;33942;-82
2023/07/16 10:10:19;;;;;;;8.85;5.25;;;;;;;34.73;33.78;99029.81;4390547;32;33829;-82
2023/07/16 10:12:58;;;;;;;9.45;4.90;;;;;;;34.63;33.18;99028.97;4390626;32;34268;-81
2023/07/16 10:15:27;;;;;;;10.48;5.68;;;;;;;34.96;32.65;99019.66;4377032;32;34735;-83
2023/07/16 10:17:56;;;;;;;8.57;5.57;;;;;;;34.99;33.00;99019.44;4390293;32;34123;-85
2023/07/16 10:20:33;;;;;;;10.75;6.43;;;;;;;34.64;33.18;99027.97;4390413;32;34509;-85
2023/07/16 10:23:12;;;;;;;9.80;5.57;;;;;;;34.29;34.14;99026.53;4390600;32;34135;-83
2023/07/16 10:25:41;;;;;;;14.38;5.28;;;;;;;34.28;34.29;99026.63;4390407;32;34660;-81
2023/07/16 10:28:08;;;;;;;6.55;4.45;;;;;;;34.51;34.22;99021.94;4390548;32;34770;-82
2023/07/16 10:30:36;;;;;;;10.05;4.90;;;;;;;34.50;34.59;99023.78;4389494;32;35018;-85
2023/07/16 10:33:12;;;;;;;10.48;4.82;;;;;;;34.66;34.15;99017.87;4390326;32;34013;-83
2023/07/16 10:35:42;;;;;;;7.28;5.07;;;;;;;34.68;35.13;99024.00;4391067;32;34128;-84
2023/07/16 10:38:09;;;;;;;8.90;5.37;;;;;;;34.38;34.05;99020.31;4389226;32;34069;-82
2023/07/16 10:40:44;;;;;;;10.57;5.78;;;;;;;34.93;35.16;99019.09;4376929;32;33553;-85
2023/07/16 10:43:12;;;;;;;8.95;5.12;;;;;;;34.64;34.60;99014.50;4376782;32;34207;-84
2023/07/16 10:45:40;;;;;;;10.23;5.97;;;;;;;34.32;34.60;99026.25;4390310;32;34107;-82
2023/07/16 10:48:07;;;;;;;11.25;5.10;;;;;;;34.44;35.04;99035.09;4376636;32;32550;-82
2023/07/16 10:50:35;;;;;;;11.75;5.10;;;;;;;34.09;34.12;99022.84;4387643;32;84749;-90
2023/07/16 10:53:02;;;;;;;9.55;5.05;;;;;;;34.16;34.17;99025.03;4390389;32;34160;-85
2023/07/16 10:55:32;;;;;;;10.75;5.20;;;;;;;34.37;34.17;99018.63;4390320;32;34349;-83
2023/07/16 10:58:04;;;;;;;19.45;4.35;;;;;;;34.68;33.10;99026.69;4388908;32;33817;-84
2023/07/16 11:00:32;;;;;;;8.73;5.22;;;;;;;34.91;33.51;99015.69;4390297;32;34018;-82
2023/07/16 11:02:59;;;;;;;11.40;4.53;;;;;;;34.48;33.73;99022.22;4390223;32;34240;-83
2023/07/16 11:05:28;;;;;;;10.90;4.60;;;;;;;34.89;34.93;99017.66;4377056;32;33697;-83
2023/07/16 11:07:56;;;;;;;6.95;4.72;;;;;;;35.08;33.04;99013.22;4390011;32;34741;-82
2023/07/16 11:10:24;;;;;;;10.50;4.45;;;;;;;35.09;34.07;99003.28;4390251;32;34061;-85
2023/07/16 11:12:55;;;;;;;8.85;4.25;;;;;;;35.01;33.05;99011.22;4376585;32;34215;-82
2023/07/16 11:15:35;;;;;;;9.60;4.72;;;;;;;34.79;33.32;99006.88;4376731;32;33719;-82
2023/07/16 11:18:03;;;;;;;10.02;4.30;;;;;;;34.85;33.88;99004.50;4390047;32;34654;-82
2023/07/16 11:20:31;;;;;;;10.68;4.72;;;;;;;34.84;34.29;99004.63;4376262;32;33359;-82
2023/07/16 11:23:02;;;;;;;12.73;4.45;;;;;;;34.75;32.82;98997.38;4390052;32;34906;-82
2023/07/16 11:25:29;;;;;;;9.70;4.35;;;;;;;34.93;32.51;99006.50;4376737;32;34115;-82
2023/07/16 11:27:57;;;;;;;6.32;3.72;;;;;;;35.06;33.73;99009.78;4389956;32;34372;-84
2023/07/16 11:30:25;;;;;;;9.70;5.00;;;;;;;35.09;34.34;99005.97;4389934;32;34239;-83
2023/07/16 11:32:53;;;;;;;9.43;5.05;;;;;;;35.22;33.47;98998.47;4389720;32;34228;-83
2023/07/16 11:35:21;;;;;;;7.35;4.45;;;;;;;35.23;31.94;98996.59;4389860;32;33660;-81